createdAt,value
2024-04-09T00:01:28.979Z,100993.50
2024-04-09T00:04:01.741Z,100987.28
2024-04-09T00:06:32.106Z,100994.91
2024-04-09T00:09:07.666Z,101005.47
2024-04-09T00:11:37.271Z,101010.72
2024-04-09T00:14:09.576Z,101009.78
2024-04-09T00:16:41.477Z,101008.97
2024-04-09T00:19:18.591Z,101009.03
2024-04-09T00:21:49.189Z,101013.34
2024-04-09T00:24:23.887Z,101023.44
2024-04-09T00:26:53.499Z,101019.75
2024-04-09T00:29:26.125Z,101015.22
2024-04-09T00:31:55.591Z,101003.03
2024-04-09T00:34:27.689Z,100990.34
2024-04-09T00:36:57.700Z,100993.16
2024-04-09T00:39:35.434Z,101000.28
2024-04-09T00:42:05.979Z,100994.84
2024-04-09T00:44:39.467Z,100984.06
2024-04-09T00:47:09.714Z,100988.53
2024-04-09T00:49:42.808Z,100993.16
2024-04-09T00:52:13.525Z,101014.00
2024-04-09T00:54:50.961Z,101024.72
2024-04-09T00:57:21.539Z,101029.22
2024-04-09T00:59:56.458Z,101033.19
2024-04-09T01:02:27.418Z,101044.03
2024-04-09T01:05:01.203Z,101048.25
2024-04-09T01:07:32.643Z,101037.66
2024-04-09T01:10:08.906Z,101040.28
2024-04-09T01:12:40.116Z,101037.78
2024-04-09T01:15:14.919Z,101036.19
2024-04-09T01:17:46.137Z,101034.28
2024-04-09T01:20:19.846Z,101026.22
2024-04-09T01:22:53.562Z,101015.84
2024-04-09T01:25:26.690Z,101013.13
2024-04-09T01:27:57.301Z,101012.13
2024-04-09T01:30:31.668Z,101005.78
2024-04-09T01:33:08.148Z,100986.94
2024-04-09T01:35:42.282Z,100985.56
2024-04-09T01:38:16.403Z,100990.66
2024-04-09T01:40:51.670Z,100994.19
2024-04-09T01:43:22.480Z,100995.69
2024-04-09T01:45:55.148Z,100988.91
2024-04-09T01:48:26.851Z,100984.13
2024-04-09T01:51:00.903Z,100992.75
2024-04-09T01:53:34.092Z,100989.72
2024-04-09T01:56:06.975Z,101000.03
2024-04-09T01:58:37.589Z,100983.03
2024-04-09T02:01:11.231Z,100974.00
2024-04-09T02:03:42.743Z,100980.22
2024-04-09T02:06:21.365Z,100994.09
2024-04-09T02:08:55.491Z,100994.97
2024-04-09T02:11:30.315Z,100995.41
2024-04-09T02:14:01.746Z,100993.81
2024-04-09T02:16:34.365Z,101001.75
2024-04-09T02:19:04.016Z,101014.38
2024-04-09T02:21:36.842Z,101021.75
2024-04-09T02:24:11.151Z,101026.81
2024-04-09T02:26:44.520Z,100999.16
2024-04-09T02:29:13.244Z,100997.31
2024-04-09T02:31:45.327Z,100995.56
2024-04-09T02:34:15.442Z,100997.91
2024-04-09T02:36:48.628Z,100980.31
2024-04-09T02:39:23.649Z,100962.81
2024-04-09T02:41:56.929Z,100948.88
2024-04-09T02:44:28.207Z,100945.25
2024-04-09T02:47:01.499Z,100945.13
2024-04-09T02:49:32.326Z,100942.50
2024-04-09T02:52:04.766Z,100929.38
2024-04-09T02:54:37.763Z,100910.09
2024-04-09T02:57:10.427Z,100911.66
2024-04-09T02:59:41.178Z,100925.53
2024-04-09T03:02:13.873Z,100942.63
2024-04-09T03:04:44.831Z,100942.44
2024-04-09T03:07:17.983Z,100939.44
2024-04-09T03:09:53.299Z,100936.84
2024-04-09T03:12:26.315Z,100923.75
2024-04-09T03:14:57.696Z,100919.97
2024-04-09T03:17:30.813Z,100924.31
2024-04-09T03:20:01.595Z,100925.97
2024-04-09T03:22:37.644Z,100920.97
2024-04-09T03:25:11.793Z,100919.28
2024-04-09T03:27:46.668Z,100919.44
2024-04-09T03:30:18.545Z,100924.44
2024-04-09T03:32:55.026Z,100929.56
2024-04-09T03:35:26.621Z,100930.34
2024-04-09T03:37:59.825Z,100931.88
2024-04-09T03:40:36.167Z,100934.25
2024-04-09T03:43:10.979Z,100920.81
2024-04-09T03:45:44.676Z,100920.75
2024-04-09T03:48:33.160Z,100918.41
2024-04-09T03:51:03.987Z,100923.91
2024-04-09T03:53:38.061Z,100928.31
2024-04-09T03:56:10.946Z,100930.03
2024-04-09T03:58:45.743Z,100935.88
2024-04-09T04:01:17.717Z,100935.66
2024-04-09T04:03:52.007Z,100935.38
2024-04-09T04:06:22.854Z,100928.94
2024-04-09T04:08:56.522Z,100926.53
2024-04-09T04:11:32.249Z,100937.22
2024-04-09T04:14:05.812Z,100937.19
2024-04-09T04:16:36.376Z,100939.88
2024-04-09T04:19:09.807Z,100951.16
2024-04-09T04:21:40.468Z,100951.91
2024-04-09T04:24:14.580Z,100947.47
2024-04-09T04:26:47.387Z,100957.75
2024-04-09T04:29:20.276Z,100945.56
2024-04-09T04:31:50.323Z,100961.72
2024-04-09T04:34:23.948Z,100959.94
2024-04-09T04:36:54.458Z,100956.41
2024-04-09T04:39:29.068Z,100932.00
2024-04-09T04:42:02.934Z,100946.66
2024-04-09T04:44:36.045Z,100946.81
2024-04-09T04:47:06.367Z,100932.41
2024-04-09T04:49:40.578Z,100924.94
2024-04-09T04:52:11.308Z,100943.28
2024-04-09T04:54:46.106Z,100943.16
2024-04-09T04:57:18.720Z,100936.28
2024-04-09T04:59:53.986Z,100935.44
2024-04-09T05:02:24.516Z,100936.47
2024-04-09T05:04:58.392Z,100934.59
2024-04-09T05:07:28.324Z,100930.91
2024-04-09T05:10:01.773Z,100937.06
2024-04-09T05:12:37.116Z,100942.25
2024-04-09T05:15:10.828Z,100945.63
2024-04-09T05:17:43.108Z,100941.25
2024-04-09T05:20:17.468Z,100939.28
2024-04-09T05:22:46.181Z,100934.81
2024-04-09T05:25:21.745Z,100937.16
2024-04-09T05:27:58.440Z,100922.88
2024-04-09T05:30:27.860Z,100912.78
2024-04-09T05:33:02.106Z,100908.34
2024-04-09T05:35:32.880Z,100911.75
2024-04-09T05:38:07.032Z,100914.16
2024-04-09T05:40:37.114Z,100890.78
2024-04-09T05:43:11.821Z,100907.41
2024-04-09T05:45:41.287Z,100904.63
2024-04-09T05:48:15.421Z,100915.94
2024-04-09T05:50:46.144Z,100931.22
2024-04-09T05:53:20.067Z,100924.84
2024-04-09T05:55:56.328Z,100929.69
2024-04-09T05:58:31.239Z,100927.63
2024-04-09T06:01:02.378Z,100924.81
2024-04-09T06:03:35.125Z,100914.06
2024-04-09T06:06:05.667Z,100903.28
2024-04-09T06:08:37.062Z,100894.56
2024-04-09T06:11:06.921Z,100896.72
2024-04-09T06:13:43.021Z,100900.03
2024-04-09T06:16:15.501Z,100899.75
2024-04-09T06:18:48.830Z,100887.25
2024-04-09T06:21:19.196Z,100873.69
2024-04-09T06:23:52.400Z,100876.09
2024-04-09T06:26:22.278Z,100870.88
2024-04-09T06:28:57.861Z,100868.66
2024-04-09T06:31:27.716Z,100852.34
2024-04-09T06:34:00.626Z,100850.31
2024-04-09T06:36:31.092Z,100846.09
2024-04-09T06:39:06.648Z,100834.47
2024-04-09T06:41:36.564Z,100825.13
2024-04-09T06:44:12.462Z,100818.22
2024-04-09T06:46:42.230Z,100802.13
2024-04-09T06:49:14.949Z,100794.69
2024-04-09T06:51:45.215Z,100785.25
2024-04-09T06:54:18.571Z,100772.53
2024-04-09T06:56:48.861Z,100771.63
2024-04-09T06:59:24.218Z,100761.31
2024-04-09T07:01:54.145Z,100739.16
2024-04-09T07:04:27.172Z,100737.31
2024-04-09T07:06:57.055Z,100729.47
2024-04-09T07:09:29.980Z,100728.63
2024-04-09T07:11:59.943Z,100720.69
2024-04-09T07:14:35.410Z,100720.28
2024-04-09T07:17:05.710Z,100710.91
2024-04-09T07:19:39.412Z,100699.91
2024-04-09T07:22:09.110Z,100705.84
2024-04-09T07:24:44.584Z,100705.91
2024-04-09T07:27:13.987Z,100702.97
2024-04-09T07:29:50.452Z,100693.03
2024-04-09T07:32:17.934Z,100682.16
2024-04-09T07:34:50.681Z,100666.72
2024-04-09T07:37:20.028Z,100668.63
2024-04-09T07:39:56.401Z,100655.50
2024-04-09T07:42:25.956Z,100673.69
2024-04-09T07:45:03.181Z,100670.69
2024-04-09T07:47:34.587Z,100667.22
2024-04-09T07:50:13.084Z,100652.78
2024-04-09T07:52:44.434Z,100654.81
2024-04-09T07:55:17.254Z,100646.44
2024-04-09T07:57:47.812Z,100630.56
2024-04-09T08:00:23.149Z,100627.94
2024-04-09T08:02:53.960Z,100619.94
2024-04-09T08:05:26.735Z,100612.91
2024-04-09T08:07:57.014Z,100603.06
2024-04-09T08:10:33.275Z,100599.75
2024-04-09T08:13:03.770Z,100596.03
2024-04-09T08:15:41.267Z,100600.50
2024-04-09T08:18:12.131Z,100602.69
2024-04-09T08:20:46.267Z,100595.31
2024-04-09T08:23:18.300Z,100586.88
2024-04-09T08:25:50.551Z,100577.84
2024-04-09T08:28:20.224Z,100564.13
2024-04-09T08:30:56.237Z,100552.25
2024-04-09T08:33:28.330Z,100540.66
2024-04-09T08:36:01.969Z,100533.97
2024-04-09T08:38:29.913Z,100527.75
2024-04-09T08:41:12.373Z,100524.63
2024-04-09T08:43:45.814Z,100532.97
2024-04-09T08:46:18.900Z,100527.78
2024-04-09T08:48:51.672Z,100524.88
2024-04-09T08:51:26.831Z,100516.38
2024-04-09T08:54:09.843Z,100511.34
2024-04-09T08:56:40.737Z,100503.72
2024-04-09T08:59:14.570Z,100496.66
2024-04-09T09:01:47.931Z,100499.38
2024-04-09T09:04:20.343Z,100487.31
2024-04-09T09:06:50.377Z,100471.00
2024-04-09T09:09:29.998Z,100460.88
2024-04-09T09:12:03.291Z,100457.91
2024-04-09T09:14:35.648Z,100455.44
2024-04-09T09:17:10.786Z,100453.28
2024-04-09T09:19:51.599Z,100453.97
2024-04-09T09:22:21.462Z,100463.13
2024-04-09T09:25:12.562Z,100458.19
2024-04-09T09:28:03.488Z,100444.69
2024-04-09T09:30:45.119Z,100445.66
2024-04-09T09:33:21.096Z,100450.56
2024-04-09T09:35:54.744Z,100453.50
2024-04-09T09:38:28.466Z,100452.84
2024-04-09T09:41:14.770Z,100448.38
2024-04-09T09:43:45.689Z,100459.28
2024-04-09T09:46:18.940Z,100446.97
2024-04-09T09:48:56.778Z,100445.25
2024-04-09T09:51:30.497Z,100470.06
2024-04-09T09:54:10.941Z,100515.91
2024-04-09T09:56:44.076Z,100543.72
2024-04-09T09:59:14.150Z,100545.41
2024-04-09T10:01:49.719Z,100531.34
2024-04-09T10:04:28.574Z,100525.31
2024-04-09T10:07:04.867Z,100544.44
2024-04-09T10:09:43.612Z,100543.09
2024-04-09T10:12:26.949Z,100530.84
2024-04-09T10:14:58.243Z,100541.09
2024-04-09T10:17:31.728Z,100527.06
2024-04-09T10:20:06.144Z,100506.03
2024-04-09T10:22:40.786Z,100477.34
2024-04-09T10:25:16.678Z,100466.44
2024-04-09T10:27:51.395Z,100477.22
2024-04-09T10:30:19.525Z,100478.44
2024-04-09T10:32:59.820Z,100462.22
2024-04-09T10:35:33.828Z,100457.28
2024-04-09T10:38:08.371Z,100456.50
2024-04-09T10:40:37.895Z,100439.88
2024-04-09T10:43:12.260Z,100441.81
2024-04-09T10:45:59.503Z,100443.47
2024-04-09T10:49:13.325Z,100453.09
2024-04-09T10:52:02.114Z,100442.44
2024-04-09T10:54:50.057Z,100470.78
2024-04-09T10:57:23.875Z,100484.13
2024-04-09T11:00:12.533Z,100487.50
2024-04-09T11:02:44.811Z,100488.84
2024-04-09T11:05:25.551Z,100478.66
2024-04-09T11:08:09.174Z,100477.41
2024-04-09T11:10:45.931Z,100481.28
2024-04-09T11:13:18.588Z,100461.09
2024-04-09T11:16:06.012Z,100475.34
2024-04-09T11:18:38.661Z,100475.59
2024-04-09T11:21:13.993Z,100468.50
2024-04-09T11:23:45.446Z,100488.00
2024-04-09T11:26:21.255Z,100491.66
2024-04-09T11:28:53.710Z,100500.09
2024-04-09T11:31:27.062Z,100496.59
2024-04-09T11:33:58.098Z,100512.84
2024-04-09T11:36:32.727Z,100515.34
2024-04-09T11:39:09.390Z,100504.41
2024-04-09T11:41:45.557Z,100505.84
2024-04-09T11:44:25.372Z,100510.31
2024-04-09T11:46:54.952Z,100516.50
2024-04-09T11:49:26.194Z,100514.47
2024-04-09T11:51:55.932Z,100513.72
2024-04-09T11:54:30.807Z,100515.75
2024-04-09T11:57:00.384Z,100518.44
2024-04-09T11:59:32.556Z,100512.28
2024-04-09T12:02:02.219Z,100523.25
2024-04-09T12:04:34.740Z,100526.25
2024-04-09T12:07:05.443Z,100526.28
2024-04-09T12:09:41.879Z,100515.41
2024-04-09T12:12:11.983Z,100534.63
2024-04-09T12:14:45.395Z,100534.03
2024-04-09T12:17:15.967Z,100536.19
2024-04-09T12:19:49.725Z,100553.28
2024-04-09T12:22:19.594Z,100558.72
2024-04-09T12:24:57.701Z,100575.72
2024-04-09T12:27:25.885Z,100583.16
2024-04-09T12:29:59.529Z,100597.63
2024-04-09T12:32:29.196Z,100607.06
2024-04-09T12:35:04.143Z,100608.97
2024-04-09T12:37:37.334Z,100612.50
2024-04-09T12:40:15.156Z,100631.31
2024-04-09T12:42:45.669Z,100637.97
2024-04-09T12:45:18.462Z,100652.22
2024-04-09T12:47:49.457Z,100661.25
2024-04-09T12:50:24.292Z,100686.75
2024-04-09T12:52:54.502Z,100692.63
2024-04-09T12:55:28.126Z,100705.50
2024-04-09T12:57:58.824Z,100710.91
2024-04-09T13:00:54.168Z,100727.78
2024-04-09T13:03:25.623Z,100737.47
2024-04-09T13:05:59.643Z,100743.91
2024-04-09T13:08:30.705Z,100763.88
2024-04-09T13:11:06.746Z,100771.31
2024-04-09T13:13:37.448Z,100782.44
2024-04-09T13:18:43.998Z,100786.13
2024-04-09T13:21:16.239Z,100783.09
2024-04-09T13:23:46.193Z,100793.56
2024-04-09T13:26:21.629Z,100797.56
2024-04-09T13:28:52.949Z,100817.88
2024-04-09T13:31:25.232Z,100820.09
2024-04-09T13:33:54.908Z,100847.16
2024-04-09T13:36:27.206Z,100861.88
2024-04-09T13:38:56.505Z,100858.53
2024-04-09T13:41:31.330Z,100863.84
2024-04-09T13:44:01.773Z,100870.44
2024-04-09T13:46:34.017Z,100889.16
2024-04-09T13:49:02.796Z,100890.59
2024-04-09T13:51:35.154Z,100894.22
2024-04-09T13:54:06.704Z,100885.97
2024-04-09T13:56:43.255Z,100881.88
2024-04-09T13:59:11.915Z,100882.44
2024-04-09T14:01:44.360Z,100888.69
2024-04-09T14:04:16.639Z,100883.16
2024-04-09T14:06:49.609Z,100901.44
2024-04-09T14:09:19.018Z,100908.94
2024-04-09T14:11:54.451Z,100923.56
2024-04-09T14:14:24.773Z,100929.28
2024-04-09T14:16:56.808Z,100933.38
2024-04-09T14:19:26.373Z,100927.41
2024-04-09T14:21:59.276Z,100940.50
2024-04-09T14:24:29.639Z,100950.84
2024-04-09T14:27:04.446Z,100958.22
2024-04-09T14:29:34.699Z,100955.50
2024-04-09T14:32:07.275Z,100967.31
2024-04-09T14:34:36.882Z,100963.47
2024-04-09T14:37:08.929Z,100958.50
2024-04-09T14:39:44.946Z,100969.69
2024-04-09T14:42:22.646Z,100972.94
2024-04-09T14:44:52.848Z,100984.19
2024-04-09T14:47:25.143Z,100989.50
2024-04-09T14:49:55.475Z,101004.09
2024-04-09T14:52:27.613Z,100990.22
2024-04-09T14:54:58.607Z,100989.16
2024-04-09T14:57:33.393Z,100999.44
2024-04-09T15:00:03.718Z,100990.63
2024-04-09T15:02:36.526Z,100992.28
2024-04-09T15:05:07.559Z,100997.38
2024-04-09T15:07:42.449Z,100993.53
2024-04-09T15:10:13.782Z,101008.88
2024-04-09T15:12:50.355Z,100997.03
2024-04-09T15:15:21.350Z,101002.63
2024-04-09T15:17:55.741Z,100995.25
2024-04-09T15:20:27.170Z,101006.81
2024-04-09T15:23:00.711Z,101000.63
2024-04-09T15:25:30.779Z,100998.59
2024-04-09T15:28:05.973Z,100990.72
2024-04-09T15:30:36.173Z,101000.94
2024-04-09T15:33:11.371Z,100997.50
2024-04-09T15:35:42.401Z,101003.50
2024-04-09T15:38:19.623Z,100976.84
2024-04-09T15:40:50.575Z,100981.34
2024-04-09T15:43:26.562Z,100984.44
2024-04-09T15:45:56.032Z,100988.66
2024-04-09T15:48:28.619Z,101000.63
2024-04-09T15:50:58.884Z,101009.00
2024-04-09T15:53:32.249Z,101018.13
2024-04-09T15:56:01.937Z,101005.34
2024-04-09T15:58:37.674Z,101017.63
2024-04-09T16:01:07.497Z,101015.66
2024-04-09T16:03:44.149Z,101029.22
2024-04-09T16:06:14.508Z,101043.84
2024-04-09T16:08:48.963Z,101043.59
2024-04-09T16:11:19.528Z,101041.72
2024-04-09T16:13:54.871Z,101052.25
2024-04-09T16:16:24.332Z,101057.19
2024-04-09T16:18:59.692Z,101066.34
2024-04-09T16:21:29.439Z,101060.13
2024-04-09T16:24:02.039Z,101073.34
2024-04-09T16:26:31.570Z,101074.88
2024-04-09T16:29:05.261Z,101078.09
2024-04-09T16:31:34.921Z,101095.59
2024-04-09T16:34:09.338Z,101092.44
2024-04-09T16:36:40.367Z,101103.28
2024-04-09T16:39:14.335Z,101112.09
2024-04-09T16:41:44.068Z,101122.38
2024-04-09T16:44:18.964Z,101116.97
2024-04-09T16:46:48.539Z,101124.88
2024-04-09T16:49:21.118Z,101146.53
2024-04-09T16:51:50.683Z,101134.47
2024-04-09T16:54:24.210Z,101149.19
2024-04-09T16:56:55.556Z,101147.63
2024-04-09T16:59:28.961Z,101158.09
2024-04-09T17:02:01.217Z,101175.31
2024-04-09T17:04:33.842Z,101195.13
2024-04-09T17:07:04.923Z,101210.03
2024-04-09T17:09:38.609Z,101220.31
2024-04-09T17:12:12.185Z,101217.84
2024-04-09T17:14:45.388Z,101237.06
2024-04-09T17:17:18.655Z,101249.81
2024-04-09T17:19:50.459Z,101254.38
2024-04-09T17:22:25.206Z,101262.75
2024-04-09T17:24:55.623Z,101255.56
2024-04-09T17:27:29.129Z,101255.75
2024-04-09T17:30:03.969Z,101279.91
2024-04-09T17:32:39.303Z,101284.19
2024-04-09T17:35:08.332Z,101274.84
2024-04-09T17:37:43.099Z,101290.56
2024-04-09T17:40:14.106Z,101292.44
2024-04-09T17:42:48.056Z,101298.84
2024-04-09T17:45:23.163Z,101313.25
2024-04-09T17:47:57.269Z,101308.50
2024-04-09T17:50:30.946Z,101305.31
2024-04-09T17:53:07.177Z,101310.69
2024-04-09T17:55:37.226Z,101335.25
2024-04-09T17:58:11.276Z,101347.03
2024-04-09T18:00:41.368Z,101361.19
2024-04-09T18:03:14.068Z,101362.97
2024-04-09T18:05:44.778Z,101361.97
2024-04-09T18:08:19.322Z,101367.66
2024-04-09T18:10:50.196Z,101366.88
2024-04-09T18:13:23.494Z,101368.75
2024-04-09T18:15:58.689Z,101379.94
2024-04-09T18:18:33.692Z,101399.72
2024-04-09T18:21:05.321Z,101399.63
2024-04-09T18:23:39.427Z,101398.56
2024-04-09T18:26:12.540Z,101395.94
2024-04-09T18:28:48.577Z,101403.16
2024-04-09T18:31:21.095Z,101391.25
2024-04-09T18:33:53.629Z,101371.50
2024-04-09T18:36:23.486Z,101365.28
2024-04-09T18:38:59.287Z,101368.88
2024-04-09T18:41:29.152Z,101350.78
2024-04-09T18:44:02.412Z,101336.13
2024-04-09T18:46:35.181Z,101336.19
2024-04-09T18:49:09.627Z,101334.97
2024-04-09T18:51:39.613Z,101344.22
2024-04-09T18:54:15.576Z,101342.72
2024-04-09T18:56:45.156Z,101344.34
2024-04-09T18:59:17.372Z,101353.66
2024-04-09T19:01:49.763Z,101340.09
2024-04-09T19:04:22.081Z,101344.28
2024-04-09T19:06:51.366Z,101351.75
2024-04-09T19:09:23.325Z,101363.28
2024-04-09T19:11:53.001Z,101369.56
2024-04-09T19:14:28.448Z,101385.09
2024-04-09T19:17:02.146Z,101372.13
2024-04-09T19:19:36.612Z,101366.09
2024-04-09T19:22:04.540Z,101373.91
2024-04-09T19:24:37.470Z,101372.28
2024-04-09T19:27:06.913Z,101368.06
2024-04-09T19:29:38.252Z,101380.09
2024-04-09T19:32:10.979Z,101385.59
2024-04-09T19:34:43.293Z,101388.31
2024-04-09T19:37:13.455Z,101395.94
2024-04-09T19:39:46.076Z,101389.06
2024-04-09T19:42:16.174Z,101395.88
2024-04-09T19:44:48.432Z,101392.94
2024-04-09T19:47:21.081Z,101404.88
2024-04-09T19:49:55.303Z,101402.00
2024-04-09T19:52:24.821Z,101403.88
2024-04-09T19:54:58.113Z,101401.97
2024-04-09T19:57:27.997Z,101407.94
2024-04-09T20:00:02.145Z,101432.03
2024-04-09T20:02:45.388Z,101411.41
2024-04-09T20:05:20.679Z,101404.47
2024-04-09T20:07:50.411Z,101413.50
2024-04-09T20:10:23.641Z,101415.13
2024-04-09T20:12:53.661Z,101419.47
2024-04-09T20:15:25.693Z,101432.75
2024-04-09T20:18:00.723Z,101438.50
2024-04-09T20:20:33.633Z,101423.69
2024-04-09T20:23:05.509Z,101429.78
2024-04-09T20:25:38.322Z,101431.63
2024-04-09T20:28:07.697Z,101427.72
2024-04-09T20:30:39.896Z,101419.16
2024-04-09T20:33:13.716Z,101426.59
2024-04-09T20:35:46.090Z,101426.72
2024-04-09T20:38:16.933Z,101428.34
2024-04-09T20:40:58.068Z,101420.13
2024-04-09T20:43:29.793Z,101429.47
2024-04-09T20:46:02.100Z,101435.47
2024-04-09T20:48:34.819Z,101439.00
2024-04-09T20:51:09.391Z,101447.09
2024-04-09T20:53:39.034Z,101458.34
2024-04-09T20:56:11.433Z,101457.63
2024-04-09T20:58:42.638Z,101439.34
2024-04-09T21:01:14.858Z,101443.72
2024-04-09T21:03:47.901Z,101448.94
2024-04-09T21:06:20.589Z,101455.91
2024-04-09T21:08:53.478Z,101458.94
2024-04-09T21:11:25.572Z,101451.63
2024-04-09T21:13:55.401Z,101453.25
2024-04-09T21:16:27.383Z,101450.53
2024-04-09T21:18:59.702Z,101456.78
2024-04-09T21:21:31.824Z,101459.47
2024-04-09T21:24:01.506Z,101458.72
2024-04-09T21:26:33.722Z,101471.66
2024-04-09T21:29:04.443Z,101461.50
2024-04-09T21:31:37.081Z,101470.88
2024-04-09T21:34:10.577Z,101461.56
2024-04-09T21:36:42.765Z,101482.72
2024-04-09T21:39:12.284Z,101490.53
2024-04-09T21:41:44.904Z,101485.28
2024-04-09T21:44:15.257Z,101491.59
2024-04-09T21:46:47.380Z,101495.84
2024-04-09T21:49:20.255Z,101501.31
2024-04-09T21:51:52.251Z,101514.13
2024-04-09T21:54:22.172Z,101499.16
2024-04-09T21:56:54.118Z,101501.78
2024-04-09T21:59:25.816Z,101507.78
2024-04-09T22:01:58.515Z,101507.28
2024-04-09T22:04:30.799Z,101519.44
2024-04-09T22:07:02.962Z,101515.78
2024-04-09T22:09:33.457Z,101510.78
2024-04-09T22:12:05.668Z,101521.19
2024-04-09T22:14:35.759Z,101523.09
2024-04-09T22:17:07.783Z,101530.66
2024-04-09T22:19:41.075Z,101531.41
2024-04-09T22:22:13.245Z,101523.72
2024-04-09T22:24:43.352Z,101519.25
2024-04-09T22:27:15.286Z,101529.88
2024-04-09T22:29:48.408Z,101537.59
2024-04-09T22:32:20.574Z,101530.56
2024-04-09T22:34:54.202Z,101531.78
2024-04-09T22:37:26.482Z,101544.75
2024-04-09T22:39:57.240Z,101546.47
2024-04-09T22:42:32.199Z,101548.91
2024-04-09T22:45:09.820Z,101536.66
2024-04-09T22:47:43.832Z,101528.03
2024-04-09T22:50:16.342Z,101533.28
2024-04-09T22:52:48.396Z,101529.22
2024-04-09T22:55:20.284Z,101527.38
2024-04-09T22:57:50.439Z,101528.34
2024-04-09T23:00:21.713Z,101523.47
2024-04-09T23:02:53.982Z,101521.47
2024-04-09T23:05:30.581Z,101515.53
2024-04-09T23:08:00.001Z,101513.03
2024-04-09T23:10:32.786Z,101515.59
2024-04-09T23:13:02.902Z,101516.34
2024-04-09T23:15:35.487Z,101514.59
2024-04-09T23:18:06.498Z,101508.66
2024-04-09T23:20:42.221Z,101515.47
2024-04-09T23:23:13.642Z,101510.50
2024-04-09T23:25:47.699Z,101500.06
2024-04-09T23:28:18.773Z,101508.63
2024-04-09T23:30:51.792Z,101511.16
2024-04-09T23:33:21.758Z,101513.59
2024-04-09T23:35:56.516Z,101512.00
2024-04-09T23:38:26.977Z,101519.72
2024-04-09T23:41:03.968Z,101509.44
2024-04-09T23:43:34.362Z,101510.28
2024-04-09T23:46:09.185Z,101516.44
2024-04-09T23:48:40.605Z,101501.09
2024-04-09T23:51:15.591Z,101498.38
2024-04-09T23:53:48.552Z,101485.28
2024-04-09T23:56:20.740Z,101484.44
2024-04-09T23:58:50.279Z,101485.38
